Portada
METAR-TAF:

METAR-TAF

Aeropuertos :

Kish, Irán

latitud: 26-31-36N, longitud: 053-58-54E, altitud: 30 m

Observación

El informe se hizo hace 20 minutos, a las 20:00 UTC
Viento 14 kt del oeste-noroeste
Temperatura 22°C
Humedad 69%
Presión 1016 hPa
Visibilidad 10 km o más
sin nubes por debajo de 1500 m y sin presencia de cumulonimbus.

METAR: OIBK 112000Z 30014KT CAVOK 22/16 Q1016

Hora: 23:50 (20:20 UTC)

Pronóstico

El informe se hizo hace 2 horas y 20 minutos, a las 18:00 UTC
Pronóstico válido del 11 a las 18 UTC al 12 a las 24 UTC
Viento 14 kt del noroeste
Visibilidad: 7000 m
Evolucionando progresivamente
del 12 a las 03 UTC al 12 a las 05 UTC
Viento 8 kt del este

TAF: OIBK 111800Z 1118/1224 31007MPS 7000 NSC BECMG 1203/1205 09004MPS

Observaciones y pronósticos meteorológicos de más de 4000 aeropuertos (mensajes METAR y TAF).

Los puntos amarillos y rojos representan las estaciones disponibles.

Ponga el ratón en el punto deseado para ver el nombre de la estación.

Haga clic para ver las observaciones y los pronósticos meteorológicos.

Para cambiar el mapa : haga clic en los botones verdes con una cruz de color negro para hacer un zoom, en el botón verde con un guión para alejar o en las flechas verdes para mapas adyacentes.


METAR-TAF: